This demonstration page uses our WeatherBlox Daily Observations layout. Learn more.

Left ArrowRight Arrow

47.50024, -111.30081

Hourly Observations for April 14, 2020

Temp ( °F °C ) Dew Point ( °F °C ) Humidity (%) Winds ( mph kmh ) Pressure ( in mb ) Visibility ( mi km ) Precip ( " mm )
12:53 am 00:53 Clear 25 -3.9 13 -10.6 60 60 SW 15 24 30.22 1023 10 16 0.00 0.00
1:53 am 01:53 Clear 28 -2.2 14 -10 56 56 SW 17 28 30.19 1022 10 16 0.00 0.00
2:53 am 02:53 Mostly Clear 29 -1.7 15 -9.4 56 56 SW 15 24 30.16 1021 10 16 0.00 0.00
3:53 am 03:53 Cloudy 30 -1.1 16 -8.9 56 56 SW 16 26 30.15 1021 10 16 0.00 0.00
4:53 am 04:53 Cloudy 31 -0.6 16 -8.9 54 54 SW 13 20 30.14 1021 10 16 0.00 0.00
5:53 am 05:53 Cloudy 31 -0.6 15 -9.4 52 52 WSW 15 24 30.14 1021 10 16 0.00 0.00
6:53 am 06:53 Cloudy 31 -0.6 18 -7.8 59 59 WSW 13 20 30.15 1021 10 16 0.00 0.00
7:53 am 07:53 Cloudy 32 0 19 -7.2 59 59 WSW 10 17 30.18 1022 10 16 0.00 0.00
8:53 am 08:53 Cloudy 34 1.1 20 -6.7 56 56 WSW 12 19 30.19 1022 10 16 0.00 0.00
9:53 am 09:53 Cloudy 36 2.2 22 -5.6 57 57 WSW 10 17 30.18 1022 10 16 0.00 0.00
11:06 am 11:06 Cloudy 39 3.9 25 -3.9 57 57 WSW 21 33 30.10 1019 10 16 0.00 0.00
12:53 pm 12:53 undefined 41 5 22 -5.6 47 47 W 14 22 N/A 10 16 0.00 0.00
1:08 pm 13:08 Cloudy 42 5.6 22 -5.6 45 45 WNW 14 22 30.06 1018 10 16 0.00 0.00
1:53 pm 13:53 undefined 43 6 N/A N/A W 10 17 N/A N/A 0.00 0.00
2:53 pm 14:53 undefined 44 6.7 22 -5.6 41 41 WSW 12 19 N/A 10 16 0.00 0.00
5:53 pm 17:53 undefined N/A N/A N/A W 9 15 N/A N/A 0.00 0.00
7:30 pm 19:30 Cloudy 42 5.6 26 -3.3 53 53 SW 5 7 29.95 1014 10 16 0.00 0.00
7:53 pm 19:53 Cloudy 40 4.4 28 -2.2 63 63 SW 6 9 30.00 1016 10 16 0.00 0.00
9:53 pm 21:53 Cloudy 40 4.4 26 -3.3 58 58 W 7 11 30.01 1016 10 16 0.00 0.00
11:50 pm 23:50 Mostly Clear 34 1 25 -4 70 70 WSW 8 13 30.02 1016 10 16 0.00 0.00
11:53 pm 23:53 Mostly Clear 33 0.6 25 -3.9 72 72 WSW 8 13 30.03 1017 10 16 0.00 0.00

Powered by AerisWeather